createdAt,value
2022-10-05T00:00:11.358Z,97816.47
2022-10-05T00:02:41.028Z,97818.69
2022-10-05T00:05:18.031Z,97812.75
2022-10-05T00:07:46.272Z,97810.78
2022-10-05T00:10:16.105Z,97813.63
2022-10-05T00:12:45.873Z,97819.13
2022-10-05T00:15:14.804Z,97813.47
2022-10-05T00:17:44.392Z,97799.31
2022-10-05T00:20:18.336Z,97802.00
2022-10-05T00:22:46.557Z,97798.13
2022-10-05T00:25:16.528Z,97791.59
2022-10-05T00:27:45.049Z,97780.88
2022-10-05T00:30:15.517Z,97792.41
2022-10-05T00:32:45.245Z,97786.44
2022-10-05T00:35:13.495Z,97781.78
2022-10-05T00:37:41.980Z,97771.63
2022-10-05T00:40:15.049Z,97776.34
2022-10-05T00:42:47.191Z,97773.19
2022-10-05T00:45:16.920Z,97773.03
2022-10-05T00:47:51.062Z,97780.94
2022-10-05T00:50:34.640Z,97777.72
2022-10-05T00:53:07.176Z,97779.69
2022-10-05T00:55:41.467Z,97775.28
2022-10-05T00:58:15.376Z,97776.00
2022-10-05T01:00:47.103Z,97773.75
2022-10-05T01:03:19.465Z,97775.44
2022-10-05T01:05:54.141Z,97768.72
2022-10-05T01:08:27.819Z,97780.44
2022-10-05T01:11:00.152Z,97779.47
2022-10-05T01:13:31.037Z,97780.75
2022-10-05T01:16:04.420Z,97789.34
2022-10-05T01:18:39.286Z,97788.03
2022-10-05T01:21:10.016Z,97785.81
2022-10-05T01:23:49.114Z,97781.19
2022-10-05T01:26:27.688Z,97779.78
2022-10-05T01:28:59.217Z,97775.41
2022-10-05T01:31:29.876Z,97776.75
2022-10-05T01:34:11.608Z,97781.44
2022-10-05T01:36:44.226Z,97771.94
2022-10-05T01:39:15.793Z,97772.78
2022-10-05T01:41:48.192Z,97770.09
2022-10-05T01:44:19.051Z,97769.03
2022-10-05T01:46:51.023Z,97777.31
2022-10-05T01:49:30.167Z,97779.13
2022-10-05T01:52:04.204Z,97772.31
2022-10-05T01:54:37.527Z,97762.31
2022-10-05T01:57:10.355Z,97762.31
2022-10-05T01:59:48.711Z,97754.16
2022-10-05T02:02:18.972Z,97756.97
2022-10-05T02:05:03.587Z,97755.88
2022-10-05T02:07:35.580Z,97749.88
2022-10-05T02:10:07.573Z,97753.59
2022-10-05T02:12:38.064Z,97750.38
2022-10-05T02:15:11.585Z,97754.03
2022-10-05T02:17:41.630Z,97740.06
2022-10-05T02:20:11.763Z,97726.25
2022-10-05T02:22:42.906Z,97725.06
2022-10-05T02:25:12.895Z,97712.91
2022-10-05T02:27:44.916Z,97718.00
2022-10-05T02:30:16.709Z,97717.22
2022-10-05T02:32:48.741Z,97716.63
2022-10-05T02:35:18.049Z,97725.13
2022-10-05T02:37:54.733Z,97730.03
2022-10-05T02:40:28.849Z,97728.19
2022-10-05T02:43:02.013Z,97725.00
2022-10-05T02:45:38.766Z,97722.44
2022-10-05T02:48:11.101Z,97732.53
2022-10-05T02:50:43.072Z,97722.25
2022-10-05T02:53:16.812Z,97729.25
2022-10-05T02:55:47.787Z,97725.59
2022-10-05T02:58:17.583Z,97729.72
2022-10-05T03:00:49.049Z,97729.34
2022-10-05T03:03:20.786Z,97722.78
2022-10-05T03:05:52.693Z,97709.06
2022-10-05T03:08:22.414Z,97715.16
2022-10-05T03:10:54.463Z,97717.81
2022-10-05T03:13:25.853Z,97717.69
2022-10-05T03:16:04.242Z,97720.50
2022-10-05T03:18:40.659Z,97710.59
2022-10-05T03:21:16.357Z,97714.84
2022-10-05T03:23:49.964Z,97714.66
2022-10-05T03:26:25.028Z,97711.91
2022-10-05T03:28:57.432Z,97715.06
2022-10-05T03:31:28.958Z,97712.91
2022-10-05T03:33:58.574Z,97716.00
2022-10-05T03:36:33.441Z,97711.84
2022-10-05T03:39:03.925Z,97710.25
2022-10-05T03:41:36.160Z,97706.72
2022-10-05T03:44:18.968Z,97702.53
2022-10-05T03:47:14.237Z,97704.22
2022-10-05T03:49:53.944Z,97697.22
2022-10-05T03:52:24.596Z,97692.19
2022-10-05T03:54:54.649Z,97694.28
2022-10-05T03:57:24.394Z,97693.09
2022-10-05T03:59:58.537Z,97695.16
2022-10-05T04:02:31.929Z,97695.72
2022-10-05T04:05:02.606Z,97695.59
2022-10-05T04:07:39.976Z,97689.63
2022-10-05T04:10:11.476Z,97679.16
2022-10-05T04:12:41.449Z,97683.50
2022-10-05T04:15:18.897Z,97686.75
2022-10-05T04:17:50.357Z,97681.09
2022-10-05T04:20:20.321Z,97676.81
2022-10-05T04:22:55.299Z,97673.34
2022-10-05T04:25:33.663Z,97678.88
2022-10-05T04:28:04.331Z,97679.19
2022-10-05T04:30:33.296Z,97670.66
2022-10-05T04:33:02.862Z,97673.28
2022-10-05T04:35:39.482Z,97677.69
2022-10-05T04:38:17.172Z,97677.41
2022-10-05T04:40:52.391Z,97680.63
2022-10-05T04:43:22.647Z,97682.53
2022-10-05T04:46:00.636Z,97683.69
2022-10-05T04:48:40.734Z,97682.06
2022-10-05T04:51:18.265Z,97684.81
2022-10-05T04:53:48.001Z,97681.75
2022-10-05T04:56:17.621Z,97680.63
2022-10-05T04:58:55.464Z,97690.56
2022-10-05T05:01:33.637Z,97686.00
2022-10-05T05:04:12.190Z,97684.69
2022-10-05T05:06:41.496Z,97685.59
2022-10-05T05:09:33.136Z,97681.69
2022-10-05T05:12:08.922Z,97686.50
2022-10-05T05:14:43.727Z,97684.88
2022-10-05T05:17:19.565Z,97686.84
2022-10-05T05:19:53.574Z,97681.75
2022-10-05T05:22:26.248Z,97694.28
2022-10-05T05:25:04.690Z,97694.09
2022-10-05T05:27:40.593Z,97691.63
2022-10-05T05:30:16.184Z,97691.19
2022-10-05T05:32:48.169Z,97689.78
2022-10-05T05:35:29.228Z,97688.09
2022-10-05T05:38:00.939Z,97692.13
2022-10-05T05:40:29.748Z,97696.78
2022-10-05T05:43:00.201Z,97696.19
2022-10-05T05:45:32.687Z,97688.00
2022-10-05T05:48:01.200Z,97697.81
2022-10-05T05:50:35.632Z,97693.16
2022-10-05T05:53:07.222Z,97690.63
2022-10-05T05:55:36.898Z,97689.16
2022-10-05T05:58:06.076Z,97684.19
2022-10-05T06:00:37.176Z,97690.81
2022-10-05T06:03:09.709Z,97682.22
2022-10-05T06:05:40.944Z,97682.16
2022-10-05T06:08:13.658Z,97687.47
2022-10-05T06:10:43.641Z,97680.47
2022-10-05T06:13:16.131Z,97677.91
2022-10-05T06:15:46.259Z,97683.38
2022-10-05T06:18:15.681Z,97690.00
2022-10-05T06:20:47.608Z,97683.31
2022-10-05T06:23:17.681Z,97681.56
2022-10-05T06:25:53.223Z,97682.97
2022-10-05T06:28:21.617Z,97681.34
2022-10-05T06:30:54.101Z,97686.53
2022-10-05T06:33:29.059Z,97692.50
2022-10-05T06:36:06.371Z,97685.06
2022-10-05T06:38:49.536Z,97679.28
2022-10-05T06:41:20.598Z,97687.59
2022-10-05T06:43:53.221Z,97676.75
2022-10-05T06:46:24.130Z,97681.41
2022-10-05T06:49:06.433Z,97675.63
2022-10-05T06:51:37.529Z,97679.16
2022-10-05T06:54:11.897Z,97679.31
2022-10-05T06:56:42.178Z,97684.00
2022-10-05T06:59:11.976Z,97680.06
2022-10-05T07:01:49.031Z,97679.50
2022-10-05T07:04:39.765Z,97681.63
2022-10-05T07:07:13.680Z,97679.38
2022-10-05T07:09:44.812Z,97685.47
2022-10-05T07:12:29.916Z,97680.50
2022-10-05T07:15:04.464Z,97676.97
2022-10-05T07:17:44.344Z,97668.78
2022-10-05T07:23:14.844Z,97661.84
2022-10-05T07:25:44.495Z,97667.06
2022-10-05T07:28:15.253Z,97677.38
2022-10-05T07:30:46.320Z,97670.34
2022-10-05T07:33:20.929Z,97680.06
2022-10-05T07:36:06.433Z,97674.16
2022-10-05T07:38:39.025Z,97673.56
2022-10-05T07:41:08.227Z,97682.75
2022-10-05T07:44:00.852Z,97681.75
2022-10-05T07:46:32.516Z,97676.13
2022-10-05T07:49:04.096Z,97678.81
2022-10-05T07:51:36.473Z,97669.59
2022-10-05T07:54:15.937Z,97684.06
2022-10-05T07:56:44.924Z,97687.56
2022-10-05T07:59:17.320Z,97683.34
2022-10-05T08:01:46.690Z,97683.88
2022-10-05T08:04:16.827Z,97686.75
2022-10-05T08:06:49.614Z,97685.72
2022-10-05T08:09:45.904Z,97687.38
2022-10-05T08:12:22.724Z,97686.22
2022-10-05T08:14:54.255Z,97696.31
2022-10-05T08:17:27.300Z,97695.47
2022-10-05T08:19:59.967Z,97690.63
2022-10-05T08:22:31.215Z,97691.63
2022-10-05T08:25:03.357Z,97687.63
2022-10-05T08:27:36.824Z,97690.97
2022-10-05T08:30:06.492Z,97687.03
2022-10-05T08:32:38.182Z,97696.63
2022-10-05T08:35:16.221Z,97694.41
2022-10-05T08:37:44.478Z,97699.66
2022-10-05T08:40:31.154Z,97692.66
2022-10-05T08:43:06.994Z,97700.88
2022-10-05T08:45:47.519Z,97691.03
2022-10-05T08:48:25.043Z,97698.25
2022-10-05T08:51:52.354Z,97698.97
2022-10-05T08:58:18.618Z,97701.72
2022-10-05T09:00:58.816Z,97704.72
2022-10-05T09:03:47.341Z,97698.97
2022-10-05T09:06:25.359Z,97701.06
2022-10-05T09:09:12.072Z,97708.09
2022-10-05T09:11:40.836Z,97694.34
2022-10-05T09:14:23.536Z,97694.56
2022-10-05T09:17:04.150Z,97692.78
2022-10-05T09:19:50.828Z,97680.09
2022-10-05T09:22:38.557Z,97677.56
2022-10-05T09:25:18.422Z,97669.84
2022-10-05T09:27:52.764Z,97670.59
2022-10-05T09:30:27.324Z,97679.94
2022-10-05T09:33:23.782Z,97674.34
2022-10-05T09:36:09.778Z,97671.88
2022-10-05T09:38:46.920Z,97672.31
2022-10-05T09:41:28.582Z,97673.50
2022-10-05T09:44:08.776Z,97662.47
2022-10-05T09:46:45.339Z,97661.94
2022-10-05T09:49:28.621Z,97657.06
2022-10-05T09:52:29.462Z,97652.22
2022-10-05T09:55:24.188Z,97645.88
2022-10-05T09:58:07.837Z,97656.88
2022-10-05T10:00:55.616Z,97655.47
2022-10-05T10:03:50.268Z,97650.88
2022-10-05T10:06:30.185Z,97653.88
2022-10-05T10:09:11.320Z,97654.19
2022-10-05T10:11:46.142Z,97655.03
2022-10-05T10:14:26.219Z,97654.13
2022-10-05T10:17:02.316Z,97646.59
2022-10-05T10:19:44.273Z,97642.00
2022-10-05T10:22:29.421Z,97646.59
2022-10-05T10:25:05.607Z,97648.03
2022-10-05T10:27:41.167Z,97645.19
2022-10-05T10:30:33.142Z,97645.09
2022-10-05T10:33:20.967Z,97642.09
2022-10-05T10:35:52.480Z,97635.38
2022-10-05T10:44:38.303Z,97641.16
2022-10-05T10:47:21.315Z,97639.78
2022-10-05T10:50:00.026Z,97639.91
2022-10-05T10:52:34.933Z,97629.69
2022-10-05T10:55:23.215Z,97623.16
2022-10-05T10:58:02.440Z,97622.84
2022-10-05T11:00:41.070Z,97621.16
2022-10-05T11:03:25.194Z,97612.94
2022-10-05T11:06:01.916Z,97608.13
2022-10-05T11:09:08.787Z,97600.53
2022-10-05T11:11:52.493Z,97601.72
2022-10-05T11:14:33.965Z,97599.84
2022-10-05T11:20:06.178Z,97601.47
2022-10-05T11:22:42.773Z,97597.94
2022-10-05T11:25:31.397Z,97595.06
2022-10-05T11:28:05.813Z,97599.75
2022-10-05T11:30:57.535Z,97593.53
2022-10-05T11:33:48.399Z,97578.34
2022-10-05T11:36:27.309Z,97583.75
2022-10-05T11:42:02.103Z,97569.63
2022-10-05T11:44:43.121Z,97577.38
2022-10-05T11:47:15.239Z,97553.31
2022-10-05T11:49:45.087Z,97543.56
2022-10-05T11:52:20.355Z,97546.09
2022-10-05T11:55:11.406Z,97532.59
2022-10-05T11:57:42.619Z,97527.03
2022-10-05T12:00:15.119Z,97518.00
2022-10-05T12:02:54.344Z,97522.09
2022-10-05T12:05:24.515Z,97520.22
2022-10-05T12:08:00.023Z,97511.38
2022-10-05T12:10:32.916Z,97500.88
2022-10-05T12:13:08.748Z,97497.06
2022-10-05T12:15:56.012Z,97485.69
2022-10-05T12:18:44.283Z,97491.06
2022-10-05T12:21:15.825Z,97491.72
2022-10-05T12:23:46.450Z,97483.56
2022-10-05T12:26:15.454Z,97479.47
2022-10-05T12:28:46.130Z,97466.16
2022-10-05T12:31:20.797Z,97472.28
2022-10-05T12:33:54.730Z,97460.22
2022-10-05T12:36:31.949Z,97459.16
2022-10-05T12:39:12.643Z,97453.19
2022-10-05T12:41:42.685Z,97447.72
2022-10-05T12:44:16.044Z,97437.28
2022-10-05T12:46:51.085Z,97445.16
2022-10-05T12:49:28.708Z,97447.09
2022-10-05T12:51:58.526Z,97438.28
2022-10-05T12:54:33.755Z,97440.59
2022-10-05T12:59:55.783Z,97437.91
2022-10-05T13:02:29.743Z,97428.50
2022-10-05T13:05:03.311Z,97432.88
2022-10-05T13:07:42.642Z,97424.34
2022-10-05T13:10:22.645Z,97420.00
2022-10-05T13:12:54.901Z,97410.59
2022-10-05T13:15:25.267Z,97414.13
2022-10-05T13:17:59.396Z,97410.13
2022-10-05T13:20:31.089Z,97405.47
2022-10-05T13:23:19.326Z,97412.88
2022-10-05T13:25:52.074Z,97396.81
2022-10-05T13:28:22.787Z,97410.84
2022-10-05T13:30:53.780Z,97393.25
2022-10-05T13:33:26.593Z,97390.72
2022-10-05T13:36:02.362Z,97379.53
2022-10-05T13:38:37.285Z,97376.47
2022-10-05T13:41:11.702Z,97376.56
2022-10-05T13:43:44.119Z,97369.47
2022-10-05T13:46:16.897Z,97367.00
2022-10-05T13:48:52.600Z,97369.81
2022-10-05T13:51:24.105Z,97372.59
2022-10-05T13:53:57.121Z,97375.91
2022-10-05T13:56:27.469Z,97355.56
2022-10-05T13:59:05.758Z,97365.72
2022-10-05T14:01:45.449Z,97365.28
2022-10-05T14:04:22.156Z,97357.53
2022-10-05T14:06:52.687Z,97355.47
2022-10-05T14:09:30.587Z,97348.44
2022-10-05T14:12:15.475Z,97345.75
2022-10-05T14:14:49.404Z,97340.69
2022-10-05T14:17:20.591Z,97348.44
2022-10-05T14:19:54.449Z,97347.19
2022-10-05T14:22:32.527Z,97335.69
2022-10-05T14:25:17.008Z,97335.06
2022-10-05T14:27:51.361Z,97349.25
2022-10-05T14:30:23.903Z,97338.94
2022-10-05T14:32:56.000Z,97329.44
2022-10-05T14:35:25.837Z,97349.53
2022-10-05T14:37:58.626Z,97345.25
2022-10-05T14:40:29.817Z,97332.53
2022-10-05T14:42:58.860Z,97335.06
2022-10-05T14:45:29.942Z,97334.31
2022-10-05T14:48:09.954Z,97341.06
2022-10-05T14:50:52.209Z,97328.72
2022-10-05T14:53:22.514Z,97321.28
2022-10-05T14:56:02.523Z,97313.72
2022-10-05T14:58:38.235Z,97321.19
2022-10-05T15:01:13.867Z,97328.13
2022-10-05T15:03:47.888Z,97328.38
2022-10-05T15:06:21.649Z,97337.72
2022-10-05T15:09:17.774Z,97332.59
2022-10-05T15:11:49.912Z,97341.75
2022-10-05T15:14:20.669Z,97343.09
2022-10-05T15:16:51.798Z,97353.06
2022-10-05T15:19:22.476Z,97351.06
2022-10-05T15:22:13.689Z,97361.97
2022-10-05T15:24:45.659Z,97366.84
2022-10-05T15:27:17.920Z,97370.47
2022-10-05T15:29:55.047Z,97370.22
2022-10-05T15:32:30.463Z,97378.44
2022-10-05T15:35:08.180Z,97375.50
2022-10-05T15:37:39.330Z,97373.34
2022-10-05T15:40:13.231Z,97386.38
2022-10-05T15:42:43.299Z,97388.81
2022-10-05T15:45:16.078Z,97387.38
2022-10-05T15:47:48.151Z,97396.75
2022-10-05T15:50:20.218Z,97397.72
2022-10-05T15:52:51.440Z,97399.13
2022-10-05T15:55:27.067Z,97400.97
2022-10-05T15:58:00.533Z,97400.22
2022-10-05T16:00:31.463Z,97407.63
2022-10-05T16:03:05.526Z,97410.34
2022-10-05T16:05:54.280Z,97412.06
2022-10-05T16:08:51.897Z,97425.28
2022-10-05T16:11:26.694Z,97431.44
2022-10-05T16:13:59.839Z,97421.94
2022-10-05T16:16:30.272Z,97440.03
2022-10-05T16:19:01.958Z,97447.66
2022-10-05T16:21:32.403Z,97447.53
2022-10-05T16:24:10.758Z,97445.34
2022-10-05T16:27:05.168Z,97441.59
2022-10-05T16:29:39.557Z,97450.09
2022-10-05T16:32:08.769Z,97457.50
2022-10-05T16:34:45.655Z,97458.53
2022-10-05T16:37:16.101Z,97471.06
2022-10-05T16:39:50.175Z,97466.84
2022-10-05T16:42:37.559Z,97471.06
2022-10-05T16:45:16.078Z,97479.38
2022-10-05T16:47:47.162Z,97476.50
2022-10-05T16:50:21.565Z,97481.22
2022-10-05T16:52:53.249Z,97483.28
2022-10-05T16:55:25.895Z,97488.81
2022-10-05T16:57:57.090Z,97492.34
2022-10-05T17:00:25.678Z,97501.19
2022-10-05T17:03:01.809Z,97505.19
2022-10-05T17:05:39.247Z,97514.75
2022-10-05T17:08:27.529Z,97523.81
2022-10-05T17:11:01.141Z,97526.03
2022-10-05T17:13:43.634Z,97545.00
2022-10-05T17:16:15.053Z,97542.81
2022-10-05T17:18:57.570Z,97540.13
2022-10-05T17:21:52.710Z,97536.88
2022-10-05T17:24:31.460Z,97543.66
2022-10-05T17:27:03.207Z,97558.72
2022-10-05T17:29:50.002Z,97556.47
2022-10-05T17:32:36.220Z,97567.16
2022-10-05T17:35:18.660Z,97568.72
2022-10-05T17:38:05.497Z,97569.38
2022-10-05T17:40:36.061Z,97578.00
2022-10-05T17:43:06.790Z,97574.59
2022-10-05T17:45:53.389Z,97592.22
2022-10-05T17:48:37.106Z,97592.22
2022-10-05T17:51:22.762Z,97601.66
2022-10-05T17:54:05.053Z,97620.31
2022-10-05T17:56:55.692Z,97619.97
2022-10-05T17:59:39.042Z,97632.69
2022-10-05T18:02:16.177Z,97639.28
2022-10-05T18:04:51.666Z,97638.28
2022-10-05T18:07:25.787Z,97641.16
2022-10-05T18:09:58.388Z,97638.94
2022-10-05T18:12:29.425Z,97652.47
2022-10-05T18:15:05.150Z,97663.13
2022-10-05T18:17:41.338Z,97662.97
2022-10-05T18:20:18.300Z,97657.88
2022-10-05T18:22:51.930Z,97654.31
2022-10-05T18:25:26.064Z,97664.81
2022-10-05T18:28:04.189Z,97665.13
2022-10-05T18:30:37.639Z,97671.72
2022-10-05T18:33:27.331Z,97668.16
2022-10-05T18:36:17.620Z,97685.41
2022-10-05T18:39:07.011Z,97680.00
2022-10-05T18:41:42.261Z,97683.22
2022-10-05T18:44:23.136Z,97678.97
2022-10-05T18:47:02.441Z,97677.13
2022-10-05T18:49:38.576Z,97676.59
2022-10-05T18:52:09.330Z,97678.81
2022-10-05T18:54:44.927Z,97678.28
2022-10-05T18:57:33.135Z,97676.97
2022-10-05T19:00:03.194Z,97681.38
2022-10-05T19:02:32.945Z,97688.63
2022-10-05T19:05:23.612Z,97690.97
2022-10-05T19:08:01.543Z,97691.19
2022-10-05T19:10:31.783Z,97687.63
2022-10-05T19:13:07.277Z,97686.09
2022-10-05T19:15:39.453Z,97691.19
2022-10-05T19:18:18.735Z,97692.88
2022-10-05T19:20:51.002Z,97695.56
2022-10-05T19:23:27.756Z,97688.31
2022-10-05T19:25:58.859Z,97696.06
2022-10-05T19:28:29.944Z,97696.59
2022-10-05T19:31:06.177Z,97700.81
2022-10-05T19:33:43.796Z,97689.81
2022-10-05T19:36:22.226Z,97698.47
2022-10-05T19:38:58.320Z,97706.59
2022-10-05T19:41:29.360Z,97713.38
2022-10-05T19:44:07.245Z,97709.28
2022-10-05T19:46:43.278Z,97698.31
2022-10-05T19:49:14.192Z,97710.28
2022-10-05T19:51:50.350Z,97706.56
2022-10-05T19:54:26.169Z,97712.31
2022-10-05T19:56:55.057Z,97712.16
2022-10-05T19:59:24.756Z,97715.53
2022-10-05T20:01:53.858Z,97719.09
2022-10-05T20:04:34.542Z,97718.09
2022-10-05T20:07:23.433Z,97716.06
2022-10-05T20:10:19.913Z,97720.28
2022-10-05T20:12:50.773Z,97726.22
2022-10-05T20:15:33.917Z,97726.50
2022-10-05T20:18:32.895Z,97722.66
2022-10-05T20:21:01.399Z,97720.28
2022-10-05T20:23:30.967Z,97729.06
2022-10-05T20:26:13.066Z,97735.66
2022-10-05T20:28:41.336Z,97728.41
2022-10-05T20:31:09.854Z,97739.06
2022-10-05T20:33:39.151Z,97734.34
2022-10-05T20:36:08.779Z,97740.06
2022-10-05T20:38:40.984Z,97742.94
2022-10-05T20:41:09.785Z,97743.16
2022-10-05T20:43:39.497Z,97742.06
2022-10-05T20:46:08.271Z,97751.25
2022-10-05T20:48:36.736Z,97754.44
2022-10-05T20:51:05.773Z,97755.44
2022-10-05T20:53:35.042Z,97759.34
2022-10-05T20:56:04.806Z,97761.53
2022-10-05T20:58:33.090Z,97759.81
2022-10-05T21:01:15.635Z,97761.00
2022-10-05T21:03:43.921Z,97766.94
2022-10-05T21:06:12.422Z,97764.38
2022-10-05T21:08:41.030Z,97771.00
2022-10-05T21:11:10.813Z,97768.81
2022-10-05T21:13:42.612Z,97775.06
2022-10-05T21:16:14.050Z,97771.50
2022-10-05T21:18:46.476Z,97772.00
2022-10-05T21:21:32.091Z,97775.75
2022-10-05T21:24:01.071Z,97774.38
2022-10-05T21:26:30.664Z,97776.59
2022-10-05T21:28:59.967Z,97780.97
2022-10-05T21:31:28.214Z,97783.03
2022-10-05T21:33:56.562Z,97780.47
2022-10-05T21:36:24.968Z,97780.78
2022-10-05T21:38:54.269Z,97780.81
2022-10-05T21:41:22.592Z,97782.81
2022-10-05T21:44:10.776Z,97781.34
2022-10-05T21:46:39.271Z,97781.81
2022-10-05T21:49:07.771Z,97787.38
2022-10-05T21:51:36.047Z,97778.94
2022-10-05T21:54:05.975Z,97781.28
2022-10-05T21:56:35.728Z,97779.09
2022-10-05T21:59:05.953Z,97792.44
2022-10-05T22:01:36.189Z,97785.38
2022-10-05T22:04:05.016Z,97784.00
2022-10-05T22:06:33.575Z,97788.19
2022-10-05T22:09:02.000Z,97797.88
2022-10-05T22:11:31.141Z,97801.59
2022-10-05T22:14:02.911Z,97797.53
2022-10-05T22:16:33.380Z,97801.59
2022-10-05T22:19:04.125Z,97801.94
2022-10-05T22:21:34.295Z,97800.59
2022-10-05T22:24:03.019Z,97806.16
2022-10-05T22:26:31.202Z,97815.66
2022-10-05T22:28:59.392Z,97819.53
2022-10-05T22:31:27.937Z,97828.31
2022-10-05T22:33:57.940Z,97857.25
2022-10-05T22:36:26.142Z,97911.03
2022-10-05T22:38:54.575Z,97916.00
2022-10-05T22:41:23.071Z,97940.44
2022-10-05T22:43:52.155Z,97928.19
2022-10-05T22:46:20.435Z,97930.81
2022-10-05T22:48:49.249Z,97934.06
2022-10-05T22:51:18.828Z,97956.75
2022-10-05T22:53:47.016Z,97951.44
2022-10-05T22:56:15.281Z,97959.66
2022-10-05T22:58:43.885Z,97960.56
2022-10-05T23:01:12.999Z,97962.66
2022-10-05T23:03:41.248Z,97965.03
2022-10-05T23:06:10.716Z,97973.34
2022-10-05T23:08:40.298Z,97971.34
2022-10-05T23:11:09.329Z,97982.72
2022-10-05T23:13:37.669Z,97989.16
2022-10-05T23:16:07.962Z,97989.28
2022-10-05T23:18:36.157Z,97987.06
2022-10-05T23:21:05.821Z,97993.41
2022-10-05T23:23:34.053Z,97993.00
2022-10-05T23:26:03.739Z,97997.03
2022-10-05T23:28:32.716Z,97995.31
2022-10-05T23:31:01.462Z,98000.97
2022-10-05T23:33:29.836Z,98000.09
2022-10-05T23:36:02.843Z,97996.69
2022-10-05T23:38:31.874Z,98007.81
2022-10-05T23:41:00.862Z,98013.19
2022-10-05T23:43:30.603Z,98025.69
2022-10-05T23:45:59.173Z,98022.28
2022-10-05T23:48:27.778Z,98028.81
2022-10-05T23:50:56.573Z,98039.19
2022-10-05T23:53:24.869Z,98051.22
2022-10-05T23:55:53.528Z,98079.75
2022-10-05T23:58:21.868Z,98092.75
